Latest Weather Observations for Solomon Airport

IDW60801

Issued at 10:13 pm WST Monday 29 November 2021 (issued every 10 minutes, with the page automatically refreshed every 10 minutes)

About weather observations | Map of weather stations | Latest weather observations for WA | Other Formats
Station Details ID: 505060 Name: SOLOMON AIRPORT Lat: -22.25 Lon: 117.85 Height: 611.47 m
Data from the previous 72 hours. | See also: Recent months for locations in Western Australia
Date/Time
WST
Temp
°C
App
Temp
°C
Dew
Point
°C
Rel
Hum
%
Delta-T
°C
Wind Press
QNH
hPa
Press
MSL
hPa
Rain since
9am
mm
Dir  Spd
km/h
Gust
km/h
Spd
kts
Gust
kts
29/10:00pm 32.3 27.7 9.8 25 13.2 WNW 24 33 13 18 1013.3 1008.2 0.0
29/09:30pm 32.8 28.2 9.6 24 13.5 WNW 24 39 13 21 1013.1 1008.0 0.0
29/09:00pm 33.3 29.2 8.7 22 14.2 NW 20 35 11 19 1012.8 1007.7 0.0
29/08:30pm 33.1 29.6 1.0 13 16.4 SE 9 11 5 6 1012.3 1007.1 0.0
29/08:00pm 35.1 31.8 0.2 11 17.8 NW 7 11 4 6 1012.0 1006.9 0.0
29/07:30pm 36.4 32.1 -1.5 9 18.9 NNW 11 15 6 8 1011.7 1006.6 0.0
29/07:00pm 36.6 33.1 -1.4 9 19.1 NE 7 9 4 5 1011.3 1006.2 0.0
29/06:30pm 37.2 33.4 -0.9 9 19.3 ESE 9 13 5 7 1010.9 1005.7 0.0
29/06:00pm 38.0 33.3 -1.9 8 20.1 SW 13 20 7 11 1010.5 1005.3 0.0
29/05:30pm 38.2 34.3 -1.8 8 20.1 SW 9 15 5 8 1010.2 1005.1 0.0
29/05:00pm 38.4 34.9 -1.6 8 20.2 NNE 7 19 4 10 1010.0 1004.9 0.0
29/04:30pm 38.6 35.6 -1.5 8 20.3 ENE 4 7 2 4 1010.1 1005.0 0.0
29/04:00pm 38.7 34.8 -1.4 8 20.4 WNW 9 20 5 11 1010.1 1005.0 0.0
29/03:30pm 38.9 35.6 -1.3 8 20.5 S 6 19 3 10 1010.3 1005.2 0.0
29/03:00pm 38.6 34.7 -1.5 8 20.3 SSW 9 17 5 9 1010.8 1005.6 0.0
29/02:30pm 38.5 35.0 -1.6 8 20.3 SSE 7 15 4 8 1011.0 1005.8 0.0
29/02:00pm 38.3 34.0 -1.7 8 20.2 S 11 22 6 12 1011.3 1006.2 0.0
29/01:30pm 37.7 34.3 -0.6 9 19.6 E 7 19 4 10 1011.7 1006.6 0.0
29/01:00pm 37.4 32.8 -0.8 9 19.4 SE 13 32 7 17 1012.1 1007.0 0.0
29/12:30pm 37.7 34.7 0.9 10 19.2 ENE 6 19 3 10 1012.5 1007.3 0.0
29/12:00pm 37.0 33.7 0.4 10 18.9 NE 7 17 4 9 1013.0 1007.9 0.0
29/11:30am 37.1 31.9 0.4 10 19.0 NNE 17 28 9 15 1013.4 1008.3 0.0
29/11:00am 36.4 31.9 -0.1 10 18.7 NE 13 28 7 15 1013.8 1008.7 0.0
29/10:30am 35.5 30.0 0.6 11 17.9 NNE 19 32 10 17 1014.2 1009.1 0.0
29/10:00am 34.7 27.8 -0.1 11 17.6 ENE 26 37 14 20 1014.4 1009.3 0.0
29/09:30am 34.5 27.4 -1.5 10 17.8 NE 26 39 14 21 1014.5 1009.4 0.0
29/09:00am 33.9 26.5 -0.7 11 17.2 ENE 28 43 15 23 1014.6 1009.5 0.0
29/08:30am 33.0 24.6 -1.4 11 16.9 ENE 33 41 18 22 1014.6 1009.5 0.0
29/08:00am 32.5 25.1 -0.5 12 16.4 ENE 28 39 15 21 1014.5 1009.4 0.0
29/07:30am 31.7 24.6 -1.2 12 16.0 ENE 26 35 14 19 1014.4 1009.3 0.0
29/07:00am 31.1 24.5 -0.5 13 15.5 ENE 24 32 13 17 1014.3 1009.2 0.0
29/06:30am 30.0 24.9 0.6 15 14.6 E 17 24 9 13 1014.2 1009.1 0.0
29/06:00am 28.8 23.9 -0.4 15 14.1 ENE 15 19 8 10 1014.0 1008.8 0.0
29/05:30am 26.0 21.6 0.6 19 12.3 ENE 13 15 7 8 1013.6 1008.5 0.0
29/05:00am 24.4 21.5 2.5 24 10.8 E 7 9 4 5 1013.4 1008.3 0.0
29/04:30am 27.3 24.1 0.9 18 12.9 ENE 7 9 4 5 1013.2 1008.1 0.0
29/04:00am 29.3 24.0 -0.9 14 14.6 ENE 17 20 9 11 1013.0 1007.9 0.0
29/03:30am 29.4 23.8 0.1 15 14.4 ENE 19 26 10 14 1012.8 1007.7 0.0
29/03:00am 25.7 22.6 7.3 31 10.0 E 13 15 7 8 1012.8 1007.7 0.0
29/02:30am 24.2 21.3 8.2 36 8.8 E 13 19 7 10 1012.6 1007.5 0.0
29/02:00am 26.2 25.6 9.1 34 9.6 NNE 2 6 1 3 1012.3 1007.1 0.0
29/01:30am 25.3 23.2 8.3 34 9.4 E 9 11 5 6 1012.5 1007.3 0.0
29/01:00am 28.4 27.0 8.7 29 11.1 NE 6 7 3 4 1012.8 1007.7 0.0
29/12:30am 29.1 27.0 8.2 27 11.7 NNW 9 11 5 6 1013.2 1008.1 0.0
29/12:00am 28.1 26.7 9.4 31 10.7 WNW 7 13 4 7 1013.5 1008.4 0.0
 
Date/Time
WST
Temp
°C
App
Temp
°C
Dew
Point
°C
Rel
Hum
%
Delta-T
°C
Wind Press
QNH
hPa
Press
MSL
hPa
Rain since
9am
mm
Dir  Spd
km/h
Gust
km/h
Spd
kts
Gust
kts
28/11:30pm 28.0 26.6 7.3 27 11.4 SSW 4 7 2 4 1013.8 1008.7 0.0
28/11:00pm 30.0 27.2 8.4 26 12.2 NNW 13 19 7 10 1013.5 1008.4 0.0
28/10:30pm 30.9 27.4 7.4 23 13.1 NNW 15 19 8 10 1013.6 1008.5 0.0
28/10:00pm 29.0 26.6 4.5 21 12.9 NE 6 9 3 5 1013.4 1008.3 0.0
28/09:30pm 29.5 26.8 5.6 22 12.9 ESE 9 11 5 6 1013.4 1008.3 0.0
28/09:00pm 30.8 29.0 5.3 20 13.8 ENE 4 7 2 4 1013.1 1008.0 0.0
28/08:30pm 32.5 29.8 3.5 16 15.3 NNE 7 9 4 5 1013.0 1007.9 0.0
28/08:00pm 33.5 30.3 3.3 15 16.0 NE 9 11 5 6 1012.8 1007.7 0.0
28/07:30pm 33.8 31.1 3.6 15 16.1 NNE 7 11 4 6 1012.5 1007.3 0.0
28/07:00pm 34.7 31.4 2.3 13 17.0 NE 9 11 5 6 1012.1 1007.0 0.0
28/06:30pm 35.5 32.5 1.8 12 17.7 ENE 7 11 4 6 1011.8 1006.7 0.0
28/06:00pm 36.1 31.6 2.2 12 18.0 E 15 20 8 11 1011.4 1006.3 0.0
28/05:30pm 36.4 32.7 2.5 12 18.0 E 11 19 6 10 1011.2 1006.1 0.0
28/05:00pm 36.5 33.2 2.5 12 18.1 NE 9 20 5 11 1011.1 1006.0 0.0
28/04:30pm 36.7 32.7 2.7 12 18.2 NE 13 19 7 10 1011.2 1006.1 0.0
28/04:00pm 36.6 32.2 2.6 12 18.2 E 15 30 8 16 1011.3 1006.2 0.0
28/03:30pm 37.0 33.4 2.9 12 18.3 SE 11 22 6 12 1011.6 1006.5 0.0
28/03:00pm 36.2 33.1 3.4 13 17.7 E 9 22 5 12 1011.9 1006.8 0.0
28/02:30pm 35.7 32.5 3.0 13 17.5 NNE 9 20 5 11 1012.1 1007.0 0.0
28/02:00pm 36.1 32.6 3.3 13 17.7 NNE 11 22 6 12 1012.6 1007.5 0.0
28/01:30pm 36.0 32.8 3.3 13 17.6 E 9 19 5 10 1012.9 1007.8 0.0
28/01:00pm 35.9 31.2 3.2 13 17.6 E 17 30 9 16 1013.3 1008.2 0.0
28/12:30pm 35.4 30.8 3.9 14 17.0 ESE 17 28 9 15 1013.7 1008.6 0.0
28/12:00pm 35.2 29.6 3.7 14 17.0 ENE 22 35 12 19 1014.1 1009.0 0.0
28/11:30am 35.0 29.0 3.5 14 16.9 E 24 33 13 18 1014.6 1009.5 0.0
28/11:00am 35.0 28.5 4.5 15 16.6 ENE 28 41 15 22 1014.9 1009.8 0.0
28/10:49am 34.3 27.7 4.0 15 16.3 ENE 28 46 15 25 1015.0 1009.9 0.0
28/10:30am 34.3 28.0 4.0 15 16.3 ENE 26 37 14 20 1015.3 1010.2 0.0
28/10:00am 33.3 26.7 4.1 16 15.7 ENE 28 41 15 22 1015.4 1010.3 0.0
28/09:30am 32.4 25.3 3.4 16 15.3 E 30 39 16 21 1015.5 1010.4 0.0
28/09:00am 32.0 24.6 3.9 17 14.9 E 32 43 17 23 1015.8 1010.7 0.0
28/08:30am 30.8 23.4 3.8 18 14.2 E 32 41 17 22 1015.9 1010.8 0.0
28/08:00am 29.6 22.4 2.8 18 13.8 ENE 30 37 16 20 1015.8 1010.7 0.0
28/07:30am 28.8 22.0 2.9 19 13.3 ENE 28 39 15 21 1015.6 1010.6 0.0
28/07:00am 28.1 22.8 3.0 20 12.8 E 20 28 11 15 1015.8 1010.7 0.0
28/06:30am 26.9 23.9 4.0 23 11.8 E 9 17 5 9 1015.6 1010.6 0.0
28/06:00am 25.5 22.5 4.0 25 11.0 ESE 9 13 5 7 1015.2 1010.1 0.0
28/05:30am 25.0 21.5 3.6 25 10.8 E 11 17 6 9 1014.8 1009.7 0.0
28/05:00am 24.3 21.9 5.1 29 10.0 E 7 11 4 6 1014.6 1009.5 0.0
28/04:30am 23.5 22.2 7.6 36 8.6 SSE 4 6 2 3 1014.3 1009.2 0.0
28/04:00am 23.8 22.4 5.7 31 9.5 W 2 4 1 2 1013.8 1008.7 0.0
28/03:30am 23.9 21.5 5.3 30 9.7 W 7 9 4 5 1013.6 1008.5 0.0
28/03:00am 25.3 23.2 3.9 25 10.9 SSE 4 6 2 3 1013.4 1008.3 0.0
28/02:30am 25.7 23.8 4.8 26 10.9 SW 4 7 2 4 1013.3 1008.2 0.0
28/02:00am 26.9 25.1 3.4 22 12.0 WSW 2 6 1 3 1013.2 1008.1 0.0
28/01:30am 26.8 23.8 4.0 23 11.8 ENE 9 9 5 5 1013.2 1008.1 0.0
28/01:00am 27.3 24.6 3.7 22 12.2 E 7 9 4 5 1013.3 1008.2 0.0
28/12:30am 27.8 25.2 4.2 22 12.3 ESE 7 9 4 5 1013.4 1008.3 0.0
28/12:00am 28.9 26.2 3.7 20 13.1 ENE 7 9 4 5 1013.6 1008.5 0.0
 
Date/Time
WST
Temp
°C
App
Temp
°C
Dew
Point
°C
Rel
Hum
%
Delta-T
°C
Wind Press
QNH
hPa
Press
MSL
hPa
Rain since
9am
mm
Dir  Spd
km/h
Gust
km/h
Spd
kts
Gust
kts
27/11:30pm 29.3 25.4 3.3 19 13.5 ENE 13 19 7 10 1014.0 1008.8 0.0
27/11:00pm 30.1 26.2 3.2 18 14.0 ENE 13 19 7 10 1014.1 1009.0 0.0
27/10:30pm 30.5 27.0 3.5 18 14.1 ENE 11 15 6 8 1014.3 1009.2 0.0
27/10:00pm 29.0 26.1 4.5 21 12.9 ENE 9 11 5 6 1014.3 1009.2 0.0
27/09:30pm 30.2 27.0 3.3 18 14.0 E 9 13 5 7 1014.2 1009.1 0.0
27/09:00pm 29.8 27.2 4.4 20 13.4 ENE 7 11 4 6 1014.0 1008.8 0.0
27/08:30pm 30.7 28.0 3.7 18 14.2 E 7 9 4 5 1013.6 1008.5 0.0
27/08:00pm 31.9 29.2 3.8 17 14.9 ENE 7 11 4 6 1013.3 1008.2 0.0
27/07:30pm 32.5 29.0 3.5 16 15.3 ENE 11 13 6 7 1013.1 1008.0 0.0
27/07:00pm 33.5 29.8 2.4 14 16.3 E 11 15 6 8 1012.6 1007.5 0.0
27/06:30pm 34.4 30.6 2.0 13 16.9 E 11 13 6 7 1012.3 1007.1 0.0
27/06:00pm 34.9 30.1 2.4 13 17.1 E 17 26 9 14 1011.7 1006.6 0.0
27/05:30pm 35.3 30.9 2.7 13 17.3 ESE 15 26 8 14 1011.6 1006.5 0.0
27/05:00pm 35.2 30.8 2.6 13 17.3 ESE 15 22 8 12 1011.4 1006.3 0.0
27/04:30pm 35.5 31.3 3.9 14 17.1 ENE 15 24 8 13 1011.3 1006.2 0.0
27/04:00pm 35.6 30.9 3.0 13 17.4 ESE 17 28 9 15 1011.4 1006.3 0.0
27/03:30pm 35.7 31.2 4.1 14 17.2 NNE 17 24 9 13 1011.5 1006.4 0.0
27/03:00pm 35.2 31.4 3.7 14 17.0 E 13 26 7 14 1011.8 1006.7 0.0
27/02:30pm 34.9 30.8 4.4 15 16.6 NW 15 24 8 13 1012.1 1007.0 0.0
27/02:00pm 35.3 30.7 3.8 14 17.0 ENE 17 32 9 17 1012.5 1007.3 0.0
27/01:30pm 34.1 30.6 5.6 17 15.7 E 13 28 7 15 1012.9 1007.8 0.0
27/01:00pm 33.8 29.4 4.5 16 15.9 ENE 17 28 9 15 1013.3 1008.2 0.0
27/12:30pm 33.8 30.7 5.4 17 15.6 ESE 11 20 6 11 1013.5 1008.4 0.0
27/12:00pm 33.2 28.8 4.9 17 15.4 NE 17 28 9 15 1014.2 1009.1 0.0
27/11:30am 32.5 28.9 5.1 18 14.9 E 13 26 7 14 1014.6 1009.5 0.0
27/11:00am 32.5 27.2 5.1 18 14.9 ENE 22 37 12 20 1014.9 1009.8 0.0
27/10:30am 32.4 27.3 5.8 19 14.6 ENE 22 39 12 21 1015.2 1010.1 0.0
27/10:00am 31.4 26.4 6.5 21 13.7 ESE 22 33 12 18 1015.6 1010.6 0.0
27/09:30am 31.0 27.0 6.8 22 13.4 E 17 28 9 15 1016.0 1010.9 0.0
27/09:00am 30.3 25.0 6.9 23 12.9 ENE 24 35 13 19 1016.0 1010.9 0.0
27/08:30am 29.8 24.1 6.5 23 12.8 E 26 37 14 20 1016.1 1011.0 0.0
27/08:00am 29.1 23.4 6.5 24 12.3 E 26 35 14 19 1015.9 1010.8 0.0
27/07:30am 28.2 22.2 6.9 26 11.7 E 28 37 15 20 1016.0 1010.9 0.0
27/07:00am 27.3 21.6 6.7 27 11.2 ENE 26 33 14 18 1015.9 1010.8 0.0
27/06:30am 26.0 22.5 7.1 30 10.3 E 15 22 8 12 1015.9 1010.8 0.0
27/06:00am 25.1 21.1 6.8 31 9.8 ENE 17 24 9 13 1015.6 1010.6 0.0
27/05:30am 24.6 20.5 6.4 31 9.7 ENE 17 22 9 12 1015.2 1010.1 0.0
27/05:00am 24.2 21.2 6.0 31 9.6 E 11 15 6 8 1014.9 1009.8 0.0
27/04:30am 24.4 21.1 6.2 31 9.6 E 13 15 7 8 1014.5 1009.4 0.0
27/04:00am 24.9 21.1 5.7 29 10.1 E 15 20 8 11 1014.2 1009.1 0.0
27/03:30am 25.2 20.8 4.9 27 10.5 ENE 17 22 9 12 1013.8 1008.7 0.0
27/03:00am 25.1 21.1 4.8 27 10.5 ENE 15 19 8 10 1013.7 1008.6 0.0
27/02:30am 25.2 21.6 4.9 27 10.5 ENE 13 15 7 8 1013.8 1008.7 0.0
27/02:00am 25.1 21.5 4.8 27 10.5 ENE 13 17 7 9 1013.8 1008.7 0.0
27/01:30am 25.4 21.7 4.5 26 10.8 ENE 13 17 7 9 1013.8 1008.7 0.0
27/01:00am 25.7 22.1 4.8 26 10.9 ENE 13 17 7 9 1014.1 1009.0 0.0
27/12:30am 26.4 22.8 4.8 25 11.3 ENE 13 17 7 9 1014.1 1009.0 0.0
27/12:00am 25.4 22.7 5.6 28 10.4 E 9 13 5 7 1014.3 1009.2 0.0
 
Date/Time
WST
Temp
°C
App
Temp
°C
Dew
Point
°C
Rel
Hum
%
Delta-T
°C
Wind Press
QNH
hPa
Press
MSL
hPa
Rain since
9am
mm
Dir  Spd
km/h
Gust
km/h
Spd
kts
Gust
kts
26/11:30pm 27.9 24.5 4.2 22 12.4 ENE 11 15 6 8 1014.4 1009.3 0.0
26/11:00pm 28.6 24.9 4.2 21 12.8 ENE 13 17 7 9 1014.5 1009.4 0.0
26/10:30pm 27.3 24.2 5.6 25 11.6 ENE 11 13 6 7 1014.7 1009.6 0.0

Other formats

Comma delimited format used in spreadsheet applications
http://www.bom.gov.au/fwo/IDW60801/IDW60801.99217.axf

JavaScript Object Notation format (JSON) in row-major order
http://www.bom.gov.au/fwo/IDW60801/IDW60801.99217.json

Data quality

Most of these data are generated automatically and are frequently updated. Quality checks on data are not normally performed. It is possible for incorrect values to appear. Refer to information at About Latest Weather Observations and please check the disclaimer before using these data.